sensor_id;sensor_type;location;lat;lon;timestamp;pressure;altitude;pressure_sealevel;temperature;humidity
11515;BME280;5814;41.936;25.556;2022-10-03T00:00:34;99081.94;;;16.57;71.23
11515;BME280;5814;41.936;25.556;2022-10-03T00:05:50;99082.02;;;16.64;71.02
11515;BME280;5814;41.936;25.556;2022-10-03T00:08:24;99085.49;;;16.73;70.49
11515;BME280;5814;41.936;25.556;2022-10-03T00:13:30;99085.25;;;16.78;70.37
11515;BME280;5814;41.936;25.556;2022-10-03T00:16:08;99086.20;;;16.77;70.32
11515;BME280;5814;41.936;25.556;2022-10-03T00:18:44;99080.50;;;16.76;70.44
11515;BME280;5814;41.936;25.556;2022-10-03T00:21:29;99076.25;;;16.74;70.66
11515;BME280;5814;41.936;25.556;2022-10-03T00:24:09;99070.77;;;16.78;70.37
11515;BME280;5814;41.936;25.556;2022-10-03T00:26:40;99075.00;;;16.72;70.54
11515;BME280;5814;41.936;25.556;2022-10-03T00:29:16;99070.39;;;16.77;70.37
11515;BME280;5814;41.936;25.556;2022-10-03T00:34:28;99069.44;;;16.70;70.71
11515;BME280;5814;41.936;25.556;2022-10-03T00:37:09;99073.73;;;16.72;70.72
11515;BME280;5814;41.936;25.556;2022-10-03T00:51:04;99062.67;;;16.65;71.27
11515;BME280;5814;41.936;25.556;2022-10-03T00:53:47;99063.92;;;16.58;71.38
11515;BME280;5814;41.936;25.556;2022-10-03T00:56:39;99062.98;;;16.59;71.21
11515;BME280;5814;41.936;25.556;2022-10-03T00:59:11;99062.41;;;16.45;72.18
11515;BME280;5814;41.936;25.556;2022-10-03T01:01:40;99071.56;;;16.38;72.23
11515;BME280;5814;41.936;25.556;2022-10-03T01:04:20;99067.02;;;16.32;72.60
11515;BME280;5814;41.936;25.556;2022-10-03T01:06:48;99058.28;;;16.23;72.40
11515;BME280;5814;41.936;25.556;2022-10-03T01:12:08;99068.03;;;16.29;72.60
11515;BME280;5814;41.936;25.556;2022-10-03T01:14:46;99063.83;;;16.17;72.59
11515;BME280;5814;41.936;25.556;2022-10-03T01:17:20;99054.16;;;16.00;72.99
11515;BME280;5814;41.936;25.556;2022-10-03T01:19:54;99059.92;;;16.08;72.95
11515;BME280;5814;41.936;25.556;2022-10-03T01:25:17;99062.70;;;15.96;73.36
11515;BME280;5814;41.936;25.556;2022-10-03T01:30:37;99051.80;;;15.95;73.55
11515;BME280;5814;41.936;25.556;2022-10-03T01:33:37;99047.66;;;16.16;72.69
11515;BME280;5814;41.936;25.556;2022-10-03T01:35:50;99053.49;;;15.96;73.82
11515;BME280;5814;41.936;25.556;2022-10-03T01:38:24;99048.53;;;15.99;73.54
11515;BME280;5814;41.936;25.556;2022-10-03T01:41:02;99048.28;;;15.95;73.24
11515;BME280;5814;41.936;25.556;2022-10-03T01:43:51;99049.23;;;15.93;73.33
11515;BME280;5814;41.936;25.556;2022-10-03T01:49:01;99040.69;;;15.98;73.39
11515;BME280;5814;41.936;25.556;2022-10-03T01:51:33;99049.27;;;16.01;73.09
11515;BME280;5814;41.936;25.556;2022-10-03T01:54:14;99036.70;;;16.07;73.38
11515;BME280;5814;41.936;25.556;2022-10-03T01:56:42;99042.13;;;15.95;73.99
11515;BME280;5814;41.936;25.556;2022-10-03T01:59:09;99038.28;;;15.84;75.00
11515;BME280;5814;41.936;25.556;2022-10-03T02:01:45;99035.95;;;15.87;75.43
11515;BME280;5814;41.936;25.556;2022-10-03T02:04:14;99033.09;;;15.74;75.91
11515;BME280;5814;41.936;25.556;2022-10-03T02:09:36;99048.36;;;15.39;78.55
11515;BME280;5814;41.936;25.556;2022-10-03T02:12:03;99026.77;;;15.14;79.10
11515;BME280;5814;41.936;25.556;2022-10-03T02:14:39;99034.24;;;15.05;80.26
11515;BME280;5814;41.936;25.556;2022-10-03T02:17:05;99039.48;;;15.14;80.81
11515;BME280;5814;41.936;25.556;2022-10-03T02:19:35;99037.80;;;15.22;80.90
11515;BME280;5814;41.936;25.556;2022-10-03T02:22:00;99042.17;;;15.13;81.83
11515;BME280;5814;41.936;25.556;2022-10-03T02:24:36;99046.45;;;14.96;83.31
11515;BME280;5814;41.936;25.556;2022-10-03T02:27:10;99048.11;;;14.70;85.14
11515;BME280;5814;41.936;25.556;2022-10-03T02:32:37;99047.06;;;14.33;87.71
11515;BME280;5814;41.936;25.556;2022-10-03T02:49:35;99052.59;;;14.47;89.04
11515;BME280;5814;41.936;25.556;2022-10-03T02:52:56;99050.97;;;14.55;89.28
11515;BME280;5814;41.936;25.556;2022-10-03T03:00:11;99059.72;;;14.84;87.72
11515;BME280;5814;41.936;25.556;2022-10-03T03:06:10;99055.32;;;14.94;86.27
11515;BME280;5814;41.936;25.556;2022-10-03T03:08:26;99059.82;;;14.72;86.53
11515;BME280;5814;41.936;25.556;2022-10-03T03:11:03;99053.77;;;14.71;86.61
11515;BME280;5814;41.936;25.556;2022-10-03T03:13:44;99047.27;;;14.78;86.29
11515;BME280;5814;41.936;25.556;2022-10-03T03:19:16;99050.95;;;14.74;86.36
11515;BME280;5814;41.936;25.556;2022-10-03T03:22:04;99040.53;;;14.63;87.27
11515;BME280;5814;41.936;25.556;2022-10-03T03:24:40;99037.38;;;14.75;86.89
11515;BME280;5814;41.936;25.556;2022-10-03T03:27:11;99041.55;;;14.88;86.32
11515;BME280;5814;41.936;25.556;2022-10-03T03:32:18;99029.37;;;14.96;86.25
11515;BME280;5814;41.936;25.556;2022-10-03T03:34:50;99032.08;;;15.04;86.08
11515;BME280;5814;41.936;25.556;2022-10-03T03:37:18;99018.20;;;15.11;85.79
11515;BME280;5814;41.936;25.556;2022-10-03T03:39:48;99011.22;;;15.10;85.35
11515;BME280;5814;41.936;25.556;2022-10-03T03:42:30;99022.58;;;15.10;85.13
11515;BME280;5814;41.936;25.556;2022-10-03T03:45:14;99002.45;;;15.00;85.49
11515;BME280;5814;41.936;25.556;2022-10-03T03:53:24;98998.92;;;15.02;84.63
11515;BME280;5814;41.936;25.556;2022-10-03T03:55:53;98988.20;;;14.97;84.94
11515;BME280;5814;41.936;25.556;2022-10-03T03:58:30;98992.30;;;15.02;84.96
11515;BME280;5814;41.936;25.556;2022-10-03T04:01:19;98989.04;;;15.07;84.73
11515;BME280;5814;41.936;25.556;2022-10-03T04:06:30;98987.11;;;14.92;85.17
11515;BME280;5814;41.936;25.556;2022-10-03T04:14:56;98997.14;;;14.44;88.94
11515;BME280;5814;41.936;25.556;2022-10-03T04:17:46;98993.44;;;14.30;89.64
11515;BME280;5814;41.936;25.556;2022-10-03T04:20:26;98994.64;;;14.02;91.33
11515;BME280;5814;41.936;25.556;2022-10-03T04:22:55;98989.63;;;13.97;91.68
11515;BME280;5814;41.936;25.556;2022-10-03T04:25:39;98994.48;;;13.85;92.98
11515;BME280;5814;41.936;25.556;2022-10-03T04:28:29;98988.78;;;13.65;94.22
11515;BME280;5814;41.936;25.556;2022-10-03T04:33:54;98985.49;;;13.81;95.17
11515;BME280;5814;41.936;25.556;2022-10-03T04:36:43;98972.28;;;14.03;94.55
11515;BME280;5814;41.936;25.556;2022-10-03T04:41:52;98973.20;;;14.32;92.24
11515;BME280;5814;41.936;25.556;2022-10-03T04:44:26;98976.18;;;14.54;91.06
11515;BME280;5814;41.936;25.556;2022-10-03T04:46:59;98989.16;;;14.66;89.78
11515;BME280;5814;41.936;25.556;2022-10-03T04:49:30;98964.30;;;14.93;88.56
11515;BME280;5814;41.936;25.556;2022-10-03T04:52:17;98960.41;;;15.00;86.92
11515;BME280;5814;41.936;25.556;2022-10-03T04:55:02;98969.12;;;15.29;84.34
11515;BME280;5814;41.936;25.556;2022-10-03T04:57:31;98975.70;;;15.47;82.67
11515;BME280;5814;41.936;25.556;2022-10-03T05:00:15;98984.12;;;15.72;81.98
11515;BME280;5814;41.936;25.556;2022-10-03T05:03:03;98995.43;;;16.08;79.99
11515;BME280;5814;41.936;25.556;2022-10-03T05:05:47;98990.95;;;16.43;77.32
11515;BME280;5814;41.936;25.556;2022-10-03T05:08:21;98994.22;;;16.64;76.12
11515;BME280;5814;41.936;25.556;2022-10-03T05:10:54;98990.34;;;16.79;74.98
11515;BME280;5814;41.936;25.556;2022-10-03T05:15:58;98969.04;;;16.99;72.86
11515;BME280;5814;41.936;25.556;2022-10-03T05:18:39;98970.22;;;16.85;72.74
11515;BME280;5814;41.936;25.556;2022-10-03T05:21:41;98967.82;;;16.82;73.37
11515;BME280;5814;41.936;25.556;2022-10-03T05:24:00;98970.58;;;16.79;73.14
11515;BME280;5814;41.936;25.556;2022-10-03T05:26:34;98981.45;;;17.13;72.82
11515;BME280;5814;41.936;25.556;2022-10-03T05:31:45;98982.98;;;17.48;71.71
11515;BME280;5814;41.936;25.556;2022-10-03T05:37:18;98965.59;;;17.74;70.61
11515;BME280;5814;41.936;25.556;2022-10-03T05:39:58;98962.56;;;17.89;69.10
11515;BME280;5814;41.936;25.556;2022-10-03T05:45:31;98958.63;;;18.53;66.46
11515;BME280;5814;41.936;25.556;2022-10-03T05:48:17;98955.23;;;18.44;65.66
11515;BME280;5814;41.936;25.556;2022-10-03T05:53:41;98967.89;;;18.60;65.15
11515;BME280;5814;41.936;25.556;2022-10-03T05:56:25;98970.01;;;18.90;64.18
11515;BME280;5814;41.936;25.556;2022-10-03T06:01:47;98973.16;;;18.74;61.49
11515;BME280;5814;41.936;25.556;2022-10-03T06:04:26;98970.91;;;19.03;62.29
11515;BME280;5814;41.936;25.556;2022-10-03T06:07:11;98946.22;;;18.96;60.68
11515;BME280;5814;41.936;25.556;2022-10-03T06:10:02;98976.02;;;19.12;60.58
11515;BME280;5814;41.936;25.556;2022-10-03T06:12:39;98968.34;;;19.69;59.55
11515;BME280;5814;41.936;25.556;2022-10-03T06:15:29;98981.23;;;19.48;58.91
11515;BME280;5814;41.936;25.556;2022-10-03T06:17:58;98987.05;;;19.80;58.31
11515;BME280;5814;41.936;25.556;2022-10-03T06:23:07;98979.75;;;19.16;59.07
11515;BME280;5814;41.936;25.556;2022-10-03T06:25:53;98984.61;;;19.43;58.97
11515;BME280;5814;41.936;25.556;2022-10-03T06:28:40;98986.04;;;20.02;57.64
11515;BME280;5814;41.936;25.556;2022-10-03T06:31:45;98978.12;;;20.39;56.28
11515;BME280;5814;41.936;25.556;2022-10-03T06:34:00;98988.41;;;20.69;55.42
11515;BME280;5814;41.936;25.556;2022-10-03T06:36:46;98987.19;;;20.10;56.00
11515;BME280;5814;41.936;25.556;2022-10-03T06:42:16;98978.81;;;20.23;57.25
11515;BME280;5814;41.936;25.556;2022-10-03T06:44:57;98975.39;;;20.78;55.10
11515;BME280;5814;41.936;25.556;2022-10-03T06:47:33;98975.52;;;21.01;53.98
11515;BME280;5814;41.936;25.556;2022-10-03T06:50:39;98977.61;;;20.60;54.12
11515;BME280;5814;41.936;25.556;2022-10-03T07:02:01;98972.61;;;20.80;52.67
11515;BME280;5814;41.936;25.556;2022-10-03T07:06:30;98959.97;;;21.44;51.59
11515;BME280;5814;41.936;25.556;2022-10-03T07:09:20;98942.83;;;21.66;50.64
11515;BME280;5814;41.936;25.556;2022-10-03T07:12:04;98947.20;;;22.53;48.82
11515;BME280;5814;41.936;25.556;2022-10-03T07:16:00;98944.97;;;22.37;48.37
11515;BME280;5814;41.936;25.556;2022-10-03T07:20:45;98943.90;;;22.16;47.56
11515;BME280;5814;41.936;25.556;2022-10-03T07:23:19;98948.06;;;22.14;47.42
11515;BME280;5814;41.936;25.556;2022-10-03T07:26:14;98931.36;;;22.63;46.61
11515;BME280;5814;41.936;25.556;2022-10-03T07:45:40;98916.39;;;23.27;45.55
11515;BME280;5814;41.936;25.556;2022-10-03T07:48:24;98918.63;;;23.05;46.41
11515;BME280;5814;41.936;25.556;2022-10-03T07:56:42;98916.90;;;21.52;49.08
11515;BME280;5814;41.936;25.556;2022-10-03T08:02:02;98914.91;;;21.49;49.44
11515;BME280;5814;41.936;25.556;2022-10-03T08:07:46;98922.74;;;22.14;48.14
11515;BME280;5814;41.936;25.556;2022-10-03T08:10:13;98920.80;;;22.40;47.52
11515;BME280;5814;41.936;25.556;2022-10-03T08:12:48;98913.41;;;22.60;46.80
11515;BME280;5814;41.936;25.556;2022-10-03T08:18:21;98914.78;;;22.59;45.51
11515;BME280;5814;41.936;25.556;2022-10-03T08:20:47;98924.43;;;22.72;45.24
11515;BME280;5814;41.936;25.556;2022-10-03T08:23:42;98913.84;;;22.77;45.10
11515;BME280;5814;41.936;25.556;2022-10-03T08:26:18;98905.00;;;22.99;45.00
11515;BME280;5814;41.936;25.556;2022-10-03T08:31:49;98913.77;;;23.32;44.75
11515;BME280;5814;41.936;25.556;2022-10-03T08:34:22;98904.71;;;22.74;45.59
11515;BME280;5814;41.936;25.556;2022-10-03T08:50:34;98912.69;;;24.18;42.29
11515;BME280;5814;41.936;25.556;2022-10-03T08:55:58;98904.09;;;24.56;42.13
11515;BME280;5814;41.936;25.556;2022-10-03T08:59:00;98915.19;;;24.56;42.26
11515;BME280;5814;41.936;25.556;2022-10-03T09:02:05;98858.09;;;23.92;42.41
11515;BME280;5814;41.936;25.556;2022-10-03T09:05:23;98914.47;;;23.82;43.37
11515;BME280;5814;41.936;25.556;2022-10-03T09:12:44;98924.84;;;24.16;43.02
11515;BME280;5814;41.936;25.556;2022-10-03T09:15:22;98920.71;;;23.65;43.07
11515;BME280;5814;41.936;25.556;2022-10-03T09:23:52;98914.16;;;23.86;42.89
11515;BME280;5814;41.936;25.556;2022-10-03T09:26:26;98910.86;;;24.29;42.12
11515;BME280;5814;41.936;25.556;2022-10-03T09:28:55;98917.63;;;24.22;41.80
11515;BME280;5814;41.936;25.556;2022-10-03T09:31:41;98917.54;;;24.03;42.08
11515;BME280;5814;41.936;25.556;2022-10-03T09:34:04;98920.46;;;23.74;42.54
11515;BME280;5814;41.936;25.556;2022-10-03T09:36:52;98931.28;;;22.97;43.56
11515;BME280;5814;41.936;25.556;2022-10-03T09:39:39;98927.80;;;22.46;44.42
11515;BME280;5814;41.936;25.556;2022-10-03T09:47:46;98926.48;;;22.46;45.07
11515;BME280;5814;41.936;25.556;2022-10-03T09:50:27;98934.33;;;22.25;45.33
11515;BME280;5814;41.936;25.556;2022-10-03T09:58:26;98930.67;;;21.69;47.76
11515;BME280;5814;41.936;25.556;2022-10-03T10:04:04;98935.28;;;21.95;47.58
11515;BME280;5814;41.936;25.556;2022-10-03T10:09:21;98920.72;;;22.63;45.97
11515;BME280;5814;41.936;25.556;2022-10-03T10:12:26;98922.45;;;22.91;45.39
11515;BME280;5814;41.936;25.556;2022-10-03T10:15:17;98930.47;;;23.28;44.50
11515;BME280;5814;41.936;25.556;2022-10-03T10:18:32;98901.86;;;23.26;44.54
11515;BME280;5814;41.936;25.556;2022-10-03T10:23:28;98922.66;;;23.10;45.56
11515;BME280;5814;41.936;25.556;2022-10-03T10:26:39;98917.25;;;22.95;48.01
11515;BME280;5814;41.936;25.556;2022-10-03T10:29:05;98911.00;;;22.85;47.41
11515;BME280;5814;41.936;25.556;2022-10-03T10:37:00;98906.61;;;23.49;47.39
11515;BME280;5814;41.936;25.556;2022-10-03T10:42:26;98907.17;;;23.79;47.67
11515;BME280;5814;41.936;25.556;2022-10-03T10:45:14;98904.56;;;23.89;47.75
11515;BME280;5814;41.936;25.556;2022-10-03T10:47:46;98900.89;;;24.22;47.07
11515;BME280;5814;41.936;25.556;2022-10-03T10:58:48;98888.78;;;23.76;47.84
11515;BME280;5814;41.936;25.556;2022-10-03T11:01:38;98905.13;;;23.50;48.52
11515;BME280;5814;41.936;25.556;2022-10-03T11:26:04;98900.23;;;22.36;51.19
11515;BME280;5814;41.936;25.556;2022-10-03T11:33:47;98909.02;;;23.25;49.08
11515;BME280;5814;41.936;25.556;2022-10-03T11:36:15;98896.54;;;23.36;48.44
11515;BME280;5814;41.936;25.556;2022-10-03T11:38:57;98903.95;;;23.06;48.72
11515;BME280;5814;41.936;25.556;2022-10-03T11:41:28;98906.53;;;22.96;49.07
11515;BME280;5814;41.936;25.556;2022-10-03T11:44:29;98906.09;;;23.12;49.21
11515;BME280;5814;41.936;25.556;2022-10-03T11:47:04;98889.19;;;22.91;49.63
11515;BME280;5814;41.936;25.556;2022-10-03T11:52:22;98888.09;;;23.21;50.26
11515;BME280;5814;41.936;25.556;2022-10-03T11:54:44;98902.25;;;23.21;50.63
11515;BME280;5814;41.936;25.556;2022-10-03T11:57:30;98894.55;;;23.50;50.59
11515;BME280;5814;41.936;25.556;2022-10-03T12:00:01;98893.64;;;23.39;50.82
11515;BME280;5814;41.936;25.556;2022-10-03T12:02:48;98900.19;;;23.09;54.19
11515;BME280;5814;41.936;25.556;2022-10-03T12:05:18;98900.96;;;22.82;53.14
11515;BME280;5814;41.936;25.556;2022-10-03T12:08:09;98896.87;;;22.34;55.09
11515;BME280;5814;41.936;25.556;2022-10-03T12:10:51;98908.81;;;22.17;56.76
11515;BME280;5814;41.936;25.556;2022-10-03T12:13:16;98916.40;;;21.99;58.37
11515;BME280;5814;41.936;25.556;2022-10-03T12:15:52;98908.94;;;21.70;61.42
11515;BME280;5814;41.936;25.556;2022-10-03T12:21:33;98907.19;;;21.70;64.73
11515;BME280;5814;41.936;25.556;2022-10-03T12:24:13;98907.81;;;21.90;64.78
11515;BME280;5814;41.936;25.556;2022-10-03T12:29:10;98902.19;;;21.88;65.02
11515;BME280;5814;41.936;25.556;2022-10-03T12:31:41;98907.47;;;21.71;65.95
11515;BME280;5814;41.936;25.556;2022-10-03T12:34:17;98907.75;;;21.62;67.16
11515;BME280;5814;41.936;25.556;2022-10-03T12:42:22;98917.55;;;21.32;69.86
11515;BME280;5814;41.936;25.556;2022-10-03T12:44:50;98911.52;;;21.06;71.02
11515;BME280;5814;41.936;25.556;2022-10-03T12:47:25;98913.62;;;21.07;70.83
11515;BME280;5814;41.936;25.556;2022-10-03T12:52:36;98925.20;;;21.06;71.06
11515;BME280;5814;41.936;25.556;2022-10-03T12:55:11;98920.14;;;21.20;70.77
11515;BME280;5814;41.936;25.556;2022-10-03T12:57:44;98917.83;;;21.40;69.20
11515;BME280;5814;41.936;25.556;2022-10-03T13:00:14;98920.05;;;21.69;68.34
11515;BME280;5814;41.936;25.556;2022-10-03T13:02:42;98922.39;;;21.73;66.67
11515;BME280;5814;41.936;25.556;2022-10-03T13:07:51;98919.70;;;21.62;67.35
11515;BME280;5814;41.936;25.556;2022-10-03T13:10:38;98907.67;;;21.86;66.92
11515;BME280;5814;41.936;25.556;2022-10-03T13:13:26;98909.00;;;21.86;66.70
11515;BME280;5814;41.936;25.556;2022-10-03T13:18:45;98912.54;;;22.09;66.59
11515;BME280;5814;41.936;25.556;2022-10-03T13:21:22;98912.83;;;21.99;66.77
11515;BME280;5814;41.936;25.556;2022-10-03T13:24:03;98906.49;;;22.07;66.65
11515;BME280;5814;41.936;25.556;2022-10-03T13:29:25;98907.09;;;22.23;66.51
11515;BME280;5814;41.936;25.556;2022-10-03T13:31:58;98909.56;;;22.07;66.78
11515;BME280;5814;41.936;25.556;2022-10-03T13:34:23;98918.86;;;21.90;67.48
11515;BME280;5814;41.936;25.556;2022-10-03T13:36:53;98917.15;;;21.72;67.80
11515;BME280;5814;41.936;25.556;2022-10-03T13:39:23;98912.50;;;21.52;68.78
11515;BME280;5814;41.936;25.556;2022-10-03T13:42:17;98911.80;;;21.61;69.17
11515;BME280;5814;41.936;25.556;2022-10-03T13:44:53;98893.42;;;21.47;68.59
11515;BME280;5814;41.936;25.556;2022-10-03T13:47:25;98911.83;;;21.55;68.77
11515;BME280;5814;41.936;25.556;2022-10-03T13:49:52;98911.91;;;21.30;69.21
11515;BME280;5814;41.936;25.556;2022-10-03T13:52:35;98906.54;;;21.13;69.93
11515;BME280;5814;41.936;25.556;2022-10-03T13:55:13;98915.73;;;20.90;71.30
11515;BME280;5814;41.936;25.556;2022-10-03T13:57:43;98913.92;;;20.91;72.04
11515;BME280;5814;41.936;25.556;2022-10-03T14:00:13;98896.77;;;20.77;71.93
11515;BME280;5814;41.936;25.556;2022-10-03T14:02:47;98900.33;;;20.77;71.97
11515;BME280;5814;41.936;25.556;2022-10-03T14:05:33;98904.16;;;20.73;72.34
11515;BME280;5814;41.936;25.556;2022-10-03T14:08:04;98895.28;;;20.61;73.33
11515;BME280;5814;41.936;25.556;2022-10-03T14:16:15;98892.20;;;20.79;72.20
11515;BME280;5814;41.936;25.556;2022-10-03T14:18:48;98896.91;;;20.88;71.60
11515;BME280;5814;41.936;25.556;2022-10-03T14:21:54;98888.42;;;20.83;71.22
11515;BME280;5814;41.936;25.556;2022-10-03T14:24:19;98888.66;;;20.92;71.20
11515;BME280;5814;41.936;25.556;2022-10-03T14:26:56;98878.80;;;20.99;70.33
11515;BME280;5814;41.936;25.556;2022-10-03T14:29:26;98879.11;;;21.01;69.40
11515;BME280;5814;41.936;25.556;2022-10-03T14:32:06;98889.41;;;20.99;68.89
11515;BME280;5814;41.936;25.556;2022-10-03T14:34:51;98888.50;;;21.00;69.05
11515;BME280;5814;41.936;25.556;2022-10-03T14:37:27;98880.45;;;20.89;69.82
11515;BME280;5814;41.936;25.556;2022-10-03T14:40:13;98886.92;;;20.97;69.60
11515;BME280;5814;41.936;25.556;2022-10-03T14:42:56;98875.52;;;20.90;69.21
11515;BME280;5814;41.936;25.556;2022-10-03T14:45:23;98885.13;;;21.10;68.79
11515;BME280;5814;41.936;25.556;2022-10-03T14:47:50;98886.74;;;21.11;67.55
11515;BME280;5814;41.936;25.556;2022-10-03T14:50:21;98864.10;;;21.01;67.40
11515;BME280;5814;41.936;25.556;2022-10-03T14:52:51;98881.69;;;21.14;67.07
11515;BME280;5814;41.936;25.556;2022-10-03T14:55:21;98886.64;;;21.13;66.96
11515;BME280;5814;41.936;25.556;2022-10-03T14:57:49;98894.75;;;21.17;67.10
11515;BME280;5814;41.936;25.556;2022-10-03T15:00:26;98878.77;;;21.06;67.10
11515;BME280;5814;41.936;25.556;2022-10-03T15:02:52;98885.39;;;21.18;66.97
11515;BME280;5814;41.936;25.556;2022-10-03T15:05:28;98889.44;;;21.17;67.01
11515;BME280;5814;41.936;25.556;2022-10-03T15:07:47;98894.77;;;21.11;67.24
11515;BME280;5814;41.936;25.556;2022-10-03T15:10:17;98903.09;;;21.12;67.69
11515;BME280;5814;41.936;25.556;2022-10-03T15:12:43;98899.30;;;21.09;67.51
11515;BME280;5814;41.936;25.556;2022-10-03T15:15:15;98901.17;;;21.14;67.25
11515;BME280;5814;41.936;25.556;2022-10-03T15:17:43;98893.52;;;21.16;66.64
11515;BME280;5814;41.936;25.556;2022-10-03T15:20:09;98898.67;;;21.23;65.84
11515;BME280;5814;41.936;25.556;2022-10-03T15:22:39;98903.80;;;21.20;64.36
11515;BME280;5814;41.936;25.556;2022-10-03T15:25:12;98908.14;;;21.09;64.04
11515;BME280;5814;41.936;25.556;2022-10-03T15:27:39;98909.64;;;21.07;64.06
11515;BME280;5814;41.936;25.556;2022-10-03T15:30:06;98927.05;;;20.92;64.15
11515;BME280;5814;41.936;25.556;2022-10-03T15:32:37;98919.37;;;20.83;64.65
11515;BME280;5814;41.936;25.556;2022-10-03T15:35:03;98930.02;;;20.82;64.40
11515;BME280;5814;41.936;25.556;2022-10-03T15:37:31;98928.34;;;20.75;64.49
11515;BME280;5814;41.936;25.556;2022-10-03T15:40:00;98927.34;;;20.77;63.71
11515;BME280;5814;41.936;25.556;2022-10-03T15:42:29;98916.92;;;20.49;63.86
11515;BME280;5814;41.936;25.556;2022-10-03T15:44:57;98928.85;;;20.55;63.77
11515;BME280;5814;41.936;25.556;2022-10-03T15:47:23;98932.61;;;20.52;63.84
11515;BME280;5814;41.936;25.556;2022-10-03T15:49:56;98935.45;;;20.49;64.42
11515;BME280;5814;41.936;25.556;2022-10-03T15:52:25;98935.94;;;20.43;64.61
11515;BME280;5814;41.936;25.556;2022-10-03T15:54:54;98944.05;;;20.40;65.14
11515;BME280;5814;41.936;25.556;2022-10-03T15:57:22;98934.61;;;20.36;65.44
11515;BME280;5814;41.936;25.556;2022-10-03T15:59:49;98937.58;;;20.32;65.62
11515;BME280;5814;41.936;25.556;2022-10-03T16:02:15;98938.06;;;20.31;65.76
11515;BME280;5814;41.936;25.556;2022-10-03T16:04:41;98943.36;;;20.18;66.06
11515;BME280;5814;41.936;25.556;2022-10-03T16:07:20;98943.48;;;20.17;66.13
11515;BME280;5814;41.936;25.556;2022-10-03T16:09:52;98957.53;;;20.12;66.21
11515;BME280;5814;41.936;25.556;2022-10-03T16:12:30;98949.78;;;20.15;66.24
11515;BME280;5814;41.936;25.556;2022-10-03T16:15:30;98947.71;;;20.13;66.07
11515;BME280;5814;41.936;25.556;2022-10-03T16:17:45;98956.47;;;20.14;65.00
11515;BME280;5814;41.936;25.556;2022-10-03T16:20:23;98959.96;;;20.15;64.78
11515;BME280;5814;41.936;25.556;2022-10-03T16:22:55;98961.55;;;19.98;64.41
11515;BME280;5814;41.936;25.556;2022-10-03T16:25:26;98953.24;;;19.97;63.89
11515;BME280;5814;41.936;25.556;2022-10-03T16:27:55;98962.02;;;19.91;63.83
11515;BME280;5814;41.936;25.556;2022-10-03T16:30:22;98945.20;;;19.72;63.66
11515;BME280;5814;41.936;25.556;2022-10-03T16:32:51;98975.09;;;19.87;63.41
11515;BME280;5814;41.936;25.556;2022-10-03T16:35:34;98977.81;;;19.73;63.42
11515;BME280;5814;41.936;25.556;2022-10-03T16:38:05;98981.70;;;19.67;63.32
11515;BME280;5814;41.936;25.556;2022-10-03T16:40:29;98984.33;;;19.54;63.76
11515;BME280;5814;41.936;25.556;2022-10-03T16:42:57;98990.08;;;19.47;63.72
11515;BME280;5814;41.936;25.556;2022-10-03T16:45:25;98998.17;;;19.45;63.87
11515;BME280;5814;41.936;25.556;2022-10-03T16:47:52;99000.18;;;19.34;64.11
11515;BME280;5814;41.936;25.556;2022-10-03T16:50:19;99003.73;;;19.34;64.19
11515;BME280;5814;41.936;25.556;2022-10-03T16:52:51;99013.02;;;19.27;64.39
11515;BME280;5814;41.936;25.556;2022-10-03T16:55:27;99015.66;;;19.27;64.56
11515;BME280;5814;41.936;25.556;2022-10-03T16:58:27;99017.94;;;19.26;64.11
11515;BME280;5814;41.936;25.556;2022-10-03T17:00:49;99025.03;;;19.25;63.82
11515;BME280;5814;41.936;25.556;2022-10-03T17:03:20;99028.47;;;19.26;63.23
11515;BME280;5814;41.936;25.556;2022-10-03T17:05:47;99015.80;;;19.18;62.19
11515;BME280;5814;41.936;25.556;2022-10-03T17:08:14;99041.56;;;19.22;60.94
11515;BME280;5814;41.936;25.556;2022-10-03T17:10:41;99050.26;;;19.24;59.21
11515;BME280;5814;41.936;25.556;2022-10-03T17:13:13;99051.88;;;19.19;58.45
11515;BME280;5814;41.936;25.556;2022-10-03T17:15:43;99042.61;;;19.19;58.00
11515;BME280;5814;41.936;25.556;2022-10-03T17:18:27;99053.33;;;19.24;57.69
11515;BME280;5814;41.936;25.556;2022-10-03T17:20:59;99041.09;;;19.09;57.27
11515;BME280;5814;41.936;25.556;2022-10-03T17:23:27;99057.94;;;19.14;56.98
11515;BME280;5814;41.936;25.556;2022-10-03T17:25:58;99057.11;;;19.06;57.12
11515;BME280;5814;41.936;25.556;2022-10-03T17:28:32;99056.70;;;19.05;56.71
11515;BME280;5814;41.936;25.556;2022-10-03T17:30:58;99055.66;;;18.94;56.27
11515;BME280;5814;41.936;25.556;2022-10-03T17:37:05;99058.45;;;18.85;55.80
11515;BME280;5814;41.936;25.556;2022-10-03T17:38:48;99062.44;;;18.84;55.54
11515;BME280;5814;41.936;25.556;2022-10-03T17:41:14;99066.10;;;18.82;55.38
11515;BME280;5814;41.936;25.556;2022-10-03T17:46:32;99075.10;;;18.79;55.05
11515;BME280;5814;41.936;25.556;2022-10-03T17:49:05;99073.48;;;18.77;54.72
11515;BME280;5814;41.936;25.556;2022-10-03T17:51:37;99088.30;;;18.80;54.48
11515;BME280;5814;41.936;25.556;2022-10-03T17:54:10;99089.34;;;18.77;54.11
11515;BME280;5814;41.936;25.556;2022-10-03T17:56:36;99085.64;;;18.72;53.59
11515;BME280;5814;41.936;25.556;2022-10-03T17:59:05;99092.95;;;18.75;53.24
11515;BME280;5814;41.936;25.556;2022-10-03T18:01:35;99092.93;;;18.68;53.40
11515;BME280;5814;41.936;25.556;2022-10-03T18:04:02;99091.12;;;18.69;53.43
11515;BME280;5814;41.936;25.556;2022-10-03T18:06:48;99096.05;;;18.60;53.76
11515;BME280;5814;41.936;25.556;2022-10-03T18:09:22;99087.08;;;18.63;53.62
11515;BME280;5814;41.936;25.556;2022-10-03T18:11:47;99088.70;;;18.58;53.66
11515;BME280;5814;41.936;25.556;2022-10-03T18:14:37;99088.83;;;18.48;53.93
11515;BME280;5814;41.936;25.556;2022-10-03T18:17:18;99103.94;;;18.39;54.41
11515;BME280;5814;41.936;25.556;2022-10-03T18:20:35;99099.24;;;18.36;54.98
11515;BME280;5814;41.936;25.556;2022-10-03T18:22:42;99102.47;;;18.34;55.71
11515;BME280;5814;41.936;25.556;2022-10-03T18:25:22;99110.52;;;18.25;56.57